TFM - Tactical Decision Aid
ID: Runway Winds: CIG/VIS Threshold:

KPEQ - Pecos Muni, TX, US

Updated at: 2224 UTC 01 Dec 2021
Latest TAF at: 1726 UTC 01 Dec 2021

TAF Board

Time2215Z 01/23Z 02/00Z 02/01Z 02/02Z 02/03Z 02/04Z 02/05Z 02/06Z 02/07Z 02/08Z 02/09Z 02/10Z 02/11Z>>
Type OBS PRVL PRVL PRVL PRVL PRVL PRVL PRVL PRVL PRVL PRVL PRVL PRVL PRVL
VIS -- >6 >6 >6 >6 >6 >6 >6 >6 >6 >6 >6 >6 >6
CIG -- -- -- -- -- -- -- -- -- -- -- -- -- --
Cover CLR SCT SCT SCT SCT SCT SCT SCT SCT SCT SCT SCT SCT SCT
FltCat VFR VFR VFR VFR VFR VFR VFR VFR VFR VFR VFR VFR VFR VFR
WX -- -- -- -- -- -- -- -- -- -- -- -- -- --
WDir 40 260 260 260 260 260 260 260 260 260 260 260 260 260
WSpd 7 5 5 5 5 5 5 5 5 5 5 5 5 5
WGst -- -- -- -- -- -- -- -- -- -- -- -- -- --
WSHgt -- -- -- -- -- -- -- -- -- -- -- -- -- --
WSDir -- -- -- -- -- -- -- -- -- -- -- -- -- --
WSSpd -- -- -- -- -- -- -- -- -- -- -- -- -- --

TDA Impact Legend

  None Marginal Slight Moderate High
Visibility (sm) >5 3≤X≤5 2≤X<3 1≤X<2 <1
Ceiling (100 ft) >30 10≤X≤30 8≤X<10 5≤X<8 <5
Wind Speed (kt) <15 15≤X<25 25≤X<30 ≥30
Wind Gust (kt) <15 15≤X<25 25≤X<35 ≥35
Weather No Wx Reported VCTS -TS,-FZRA TS,FZRA +TS,+FZRA
TAF
KPEQ 011726Z 0118/0218 26005KT P6SM SCT200

METAR
KPEQ 012215Z AUTO 04007KT CLR 24/00 A3012 RMK AO2 T02430004 PWINO
KPEQ 012155Z AUTO 00000KT CLR 24/00 A3012 RMK AO2 T02410004 PWINO
KPEQ 012135Z AUTO 04003KT CLR 24/01 A3013 RMK AO2 T02400006 PWINO
KPEQ 012115Z AUTO 00000KT CLR 24/01 A3013 RMK AO2 T02360008 PWINO
KPEQ 012055Z AUTO 00000KT CLR 24/01 A3013 RMK AO2 LTG DSNT S T02400008 PWINO
KPEQ 012035Z AUTO 00000KT CLR 23/01 A3014 RMK AO2 T02320007 PWINO
KPEQ 012015Z AUTO 00000KT CLR 23/01 A3015 RMK AO2 T02270009 PWINO
KPEQ 011955Z AUTO 00000KT CLR 22/01 A3016 RMK AO2 T02210009 PWINO
KPEQ 011935Z AUTO 00000KT CLR 21/01 A3016 RMK AO2 T02140010 PWINO
KPEQ 011915Z AUTO 00000KT CLR 21/01 A3017 RMK AO2 T02110008 PWINO
KPEQ 011855Z AUTO 00000KT CLR 21/01 A3018 RMK AO2 T02080006 PWINO

Radar Display
Forecast Discussion